createdAt,value
2023-04-10T00:00:41.599Z,13.48
2023-04-10T00:05:41.143Z,13.45
2023-04-10T00:10:40.016Z,13.43
2023-04-10T00:15:38.159Z,14.23
2023-04-10T00:20:36.332Z,15.88
2023-04-10T00:25:35.878Z,15.13
2023-04-10T00:30:34.016Z,15.70
2023-04-10T00:35:32.535Z,15.75
2023-04-10T00:40:30.865Z,18.25
2023-04-10T00:45:30.459Z,18.00
2023-04-10T00:50:28.577Z,19.38
2023-04-10T00:55:27.093Z,17.10
2023-04-10T01:00:25.307Z,23.02
2023-04-10T01:05:25.967Z,19.98
2023-04-10T01:10:28.170Z,22.73
2023-04-10T01:15:27.985Z,18.70
2023-04-10T01:20:29.986Z,17.30
2023-04-10T01:25:38.386Z,19.08
2023-04-10T01:30:42.140Z,17.40
2023-04-10T01:35:42.672Z,19.70
2023-04-10T01:40:42.311Z,21.95
2023-04-10T01:45:44.033Z,19.60
2023-04-10T01:50:42.524Z,18.88
2023-04-10T01:55:40.932Z,21.05
2023-04-10T02:00:44.292Z,20.77
2023-04-10T02:05:54.208Z,22.77
2023-04-10T02:10:54.915Z,23.08
2023-04-10T02:15:55.931Z,26.48
2023-04-10T02:20:55.840Z,25.17
2023-04-10T02:25:53.972Z,22.77
2023-04-10T02:30:52.134Z,24.17
2023-04-10T02:35:50.302Z,29.05
2023-04-10T02:40:50.405Z,22.40
2023-04-10T02:45:49.458Z,27.80
2023-04-10T02:50:56.978Z,25.20
2023-04-10T02:55:56.696Z,25.13
2023-04-10T03:00:55.002Z,24.98
2023-04-10T03:06:08.147Z,25.92
2023-04-10T03:11:10.119Z,26.35
2023-04-10T03:16:08.788Z,25.45
2023-04-10T03:21:07.658Z,25.02
2023-04-10T03:26:06.008Z,27.33
2023-04-10T03:31:10.762Z,26.80
2023-04-10T03:36:10.402Z,27.85
2023-04-10T03:41:08.604Z,27.77
2023-04-10T03:46:07.205Z,28.33
2023-04-10T03:51:14.125Z,28.30
2023-04-10T03:56:12.396Z,27.65
2023-04-10T04:01:10.749Z,29.17
2023-04-10T04:06:27.482Z,35.00
2023-04-10T04:12:04.010Z,47.78
2023-04-10T04:17:20.531Z,44.25
2023-04-10T04:22:38.370Z,92.90
2023-04-10T04:27:45.432Z,31.45
2023-04-10T04:33:01.826Z,27.20
2023-04-10T04:38:33.715Z,34.78
2023-04-10T04:43:42.235Z,25.60
2023-04-10T04:48:58.241Z,27.65
2023-04-10T04:54:08.965Z,30.52
2023-04-10T04:59:21.337Z,31.38
2023-04-10T05:04:57.908Z,29.30
2023-04-10T05:10:17.719Z,29.05
2023-04-10T05:15:34.407Z,28.08
2023-04-10T05:20:51.184Z,29.48
2023-04-10T05:25:58.332Z,28.27
2023-04-10T05:31:15.076Z,32.72
2023-04-10T05:36:24.578Z,28.75
2023-04-10T05:41:59.470Z,28.42
2023-04-10T05:47:02.291Z,27.43
2023-04-10T05:52:09.594Z,26.10
2023-04-10T05:57:27.785Z,26.30
2023-04-10T06:02:44.563Z,28.58
2023-04-10T06:07:51.878Z,26.38
2023-04-10T06:12:51.461Z,42.08
2023-04-10T06:17:54.056Z,47.83
2023-04-10T06:22:52.771Z,28.55
2023-04-10T06:27:52.291Z,26.40
2023-04-10T06:32:50.499Z,32.33
2023-04-10T06:37:48.802Z,28.83
2023-04-10T06:42:47.386Z,32.60
2023-04-10T06:47:55.071Z,25.20
2023-04-10T06:52:55.997Z,29.13
2023-04-10T06:57:55.044Z,27.75
2023-04-10T07:02:53.511Z,27.10
2023-04-10T07:07:53.365Z,47.25
2023-04-10T07:12:51.617Z,29.65
2023-04-10T07:17:49.919Z,32.95
2023-04-10T07:22:48.149Z,31.88
2023-04-10T07:27:47.651Z,23.90
2023-04-10T07:32:46.096Z,25.85
2023-04-10T07:37:44.910Z,29.48
2023-04-10T07:42:43.038Z,23.98
2023-04-10T07:47:42.566Z,31.92
2023-04-10T07:52:40.789Z,23.80
2023-04-10T07:57:40.616Z,27.58
2023-04-10T08:02:40.927Z,28.83
2023-04-10T08:07:40.602Z,26.77
2023-04-10T08:12:39.867Z,25.33
2023-04-10T08:17:38.063Z,26.70
2023-04-10T08:22:36.184Z,25.92
2023-04-10T08:27:35.702Z,24.63
2023-04-10T08:32:33.878Z,22.17
2023-04-10T08:37:32.008Z,24.48
2023-04-10T08:42:31.707Z,32.67
2023-04-10T08:47:35.360Z,28.17
2023-04-10T08:52:36.158Z,22.60
2023-04-10T08:57:34.306Z,23.70
2023-04-10T09:02:34.020Z,20.17
2023-04-10T09:07:32.775Z,23.95
2023-04-10T09:12:30.877Z,26.67
2023-04-10T09:17:29.021Z,32.40
2023-04-10T09:22:32.578Z,21.33
2023-04-10T09:27:33.034Z,22.02
2023-04-10T09:32:38.893Z,20.73
2023-04-10T09:37:38.795Z,20.48
2023-04-10T09:42:37.615Z,19.33
2023-04-10T09:47:36.280Z,17.75
2023-04-10T09:52:35.311Z,17.25
2023-04-10T09:57:35.488Z,19.17
2023-04-10T10:02:37.543Z,19.13
2023-04-10T10:07:35.975Z,16.65
2023-04-10T10:12:41.822Z,14.98
2023-04-10T10:17:42.727Z,15.77
2023-04-10T10:22:41.428Z,15.10
2023-04-10T10:27:41.552Z,16.05
2023-04-10T10:32:40.896Z,14.18
2023-04-10T10:37:40.161Z,13.55
2023-04-10T10:42:41.938Z,13.50
2023-04-10T10:47:43.079Z,11.88
2023-04-10T10:52:42.466Z,11.57
2023-04-10T10:57:47.080Z,11.63
2023-04-10T11:08:02.250Z,10.18
2023-04-10T11:13:17.876Z,13.43
2023-04-10T11:18:16.031Z,9.18
2023-04-10T11:23:14.267Z,10.32
2023-04-10T11:28:34.497Z,11.05
2023-04-10T11:33:34.058Z,12.65
2023-04-10T11:38:32.857Z,13.30
2023-04-10T11:43:31.474Z,11.43
2023-04-10T11:48:29.841Z,14.45
2023-04-10T11:53:30.264Z,11.75
2023-04-10T11:58:30.031Z,13.30
2023-04-10T12:03:38.739Z,11.45
2023-04-10T12:08:39.089Z,10.10
2023-04-10T12:13:37.467Z,9.85
2023-04-10T12:18:37.411Z,10.40
2023-04-10T12:23:37.297Z,15.23
2023-04-10T12:28:37.105Z,8.32
2023-04-10T12:33:35.371Z,8.68
2023-04-10T12:38:37.204Z,12.52
2023-04-10T12:43:37.398Z,9.23
2023-04-10T12:48:35.674Z,9.48
2023-04-10T12:53:43.744Z,7.88
2023-04-10T12:58:43.772Z,8.10
2023-04-10T13:03:42.031Z,9.07
2023-04-10T13:08:40.587Z,9.32
2023-04-10T13:13:38.694Z,10.30
2023-04-10T13:18:41.373Z,9.57
2023-04-10T13:23:39.476Z,10.13
2023-04-10T13:28:37.606Z,11.30
2023-04-10T13:33:35.967Z,8.07
2023-04-10T13:38:35.559Z,8.57
2023-04-10T13:43:33.765Z,9.23
2023-04-10T13:48:40.217Z,8.85
2023-04-10T13:53:40.073Z,7.40
2023-04-10T13:58:38.194Z,11.25
2023-04-10T14:03:36.374Z,7.65
2023-04-10T14:08:34.665Z,11.85
2023-04-10T14:13:34.264Z,9.55
2023-04-10T14:18:32.379Z,9.07
2023-04-10T14:23:30.490Z,9.10
2023-04-10T14:28:29.306Z,10.45
2023-04-10T14:33:28.897Z,12.40
2023-04-10T14:38:27.117Z,10.38
2023-04-10T14:43:25.356Z,14.20
2023-04-10T14:48:23.707Z,9.38
2023-04-10T14:53:23.437Z,9.30
2023-04-10T14:58:21.579Z,10.30
2023-04-10T15:03:20.315Z,12.20
2023-04-10T15:08:19.844Z,8.07
2023-04-10T15:13:19.843Z,10.48
2023-04-10T15:18:17.968Z,8.50
2023-04-10T15:23:17.530Z,8.85
2023-04-10T15:28:15.674Z,10.02
2023-04-10T15:33:23.690Z,14.18
2023-04-10T15:38:22.010Z,16.15
2023-04-10T15:43:23.400Z,23.70
2023-04-10T15:48:24.689Z,10.88
2023-04-10T15:53:22.893Z,13.75
2023-04-10T15:58:21.056Z,16.42
2023-04-10T16:03:19.378Z,15.30
2023-04-10T16:08:18.980Z,20.75
2023-04-10T16:13:17.100Z,19.83
2023-04-10T16:18:15.328Z,19.30
2023-04-10T16:23:13.451Z,16.92
2023-04-10T16:28:13.069Z,32.70
2023-04-10T16:33:11.416Z,29.60
2023-04-10T16:38:09.670Z,38.17
2023-04-10T16:43:07.806Z,69.97
2023-04-10T16:48:07.449Z,59.00
2023-04-10T16:53:05.705Z,34.60
2023-04-10T16:58:03.845Z,22.60
2023-04-10T17:03:02.103Z,26.88
2023-04-10T17:08:01.691Z,22.58
2023-04-10T17:12:59.886Z,20.08
2023-04-10T17:17:58.027Z,26.05
2023-04-10T17:22:56.215Z,16.98
2023-04-10T17:27:55.730Z,16.75
2023-04-10T17:32:54.221Z,15.05
2023-04-10T17:37:52.588Z,20.08
2023-04-10T17:42:50.957Z,18.52
2023-04-10T17:47:50.580Z,17.60
2023-04-10T17:52:48.741Z,20.95
2023-04-10T17:57:46.929Z,17.23
2023-04-10T18:02:45.414Z,18.42
2023-04-10T18:07:45.045Z,32.17
2023-04-10T18:12:43.196Z,30.58
2023-04-10T18:17:41.746Z,32.20
2023-04-10T18:22:40.329Z,29.15
2023-04-10T18:27:43.500Z,33.47
2023-04-10T18:32:43.748Z,41.67
2023-04-10T18:37:42.363Z,43.70
2023-04-10T18:42:41.900Z,32.17
2023-04-10T18:47:40.115Z,24.42
2023-04-10T18:52:38.505Z,17.50
2023-04-10T18:57:37.301Z,18.83
2023-04-10T19:02:37.406Z,16.60
2023-04-10T19:07:35.748Z,18.13
2023-04-10T19:12:35.291Z,21.80
2023-04-10T19:17:33.697Z,20.65
2023-04-10T19:22:34.867Z,20.63
2023-04-10T19:27:33.025Z,19.65
2023-04-10T19:32:31.343Z,21.90
2023-04-10T19:37:31.339Z,28.65
2023-04-10T19:42:30.920Z,31.48
2023-04-10T19:47:32.081Z,20.67
2023-04-10T19:52:30.266Z,16.10
2023-04-10T19:57:28.401Z,14.80
2023-04-10T20:02:29.192Z,17.33
2023-04-10T20:07:27.398Z,13.05
2023-04-10T20:12:25.691Z,12.73
2023-04-10T20:17:38.643Z,13.00
2023-04-10T20:22:38.277Z,12.65
2023-04-10T20:27:36.492Z,11.40
2023-04-10T20:32:34.657Z,13.93
2023-04-10T20:37:32.818Z,12.82
2023-04-10T20:42:32.469Z,11.90
2023-04-10T20:47:30.671Z,11.18
2023-04-10T20:52:28.849Z,11.45
2023-04-10T21:02:46.014Z,10.93
2023-04-10T21:07:48.614Z,10.38
2023-04-10T21:12:49.810Z,12.68
2023-04-10T21:17:49.355Z,12.25
2023-04-10T21:28:02.739Z,11.73
2023-04-10T21:33:02.306Z,11.45
2023-04-10T21:38:02.325Z,10.88
2023-04-10T21:43:00.892Z,11.32
2023-04-10T21:48:00.460Z,11.48
2023-04-10T21:53:00.630Z,11.63
2023-04-10T21:57:58.762Z,10.68
2023-04-10T22:02:56.988Z,11.13
2023-04-10T22:07:55.270Z,12.70
2023-04-10T22:12:54.770Z,10.45
2023-04-10T22:17:53.106Z,10.77
2023-04-10T22:22:54.037Z,10.90
2023-04-10T22:27:52.368Z,11.27
2023-04-10T22:32:55.272Z,10.30
2023-04-10T22:37:53.448Z,11.50
2023-04-10T22:42:51.590Z,10.77
2023-04-10T22:47:49.721Z,10.20
2023-04-10T22:52:49.279Z,11.02
2023-04-10T22:57:48.381Z,11.35
2023-04-10T23:02:49.440Z,9.50
2023-04-10T23:07:48.990Z,11.48
2023-04-10T23:12:50.004Z,9.60
2023-04-10T23:17:48.177Z,9.63
2023-04-10T23:22:46.418Z,9.98
2023-04-10T23:27:45.927Z,9.98
2023-04-10T23:32:44.072Z,10.02
2023-04-10T23:37:42.230Z,10.45
2023-04-10T23:42:40.372Z,10.38
2023-04-10T23:47:39.932Z,10.45
2023-04-10T23:52:38.083Z,11.63
2023-04-10T23:57:36.206Z,11.52
